createdAt,value
2023-05-22T00:00:56.124Z,17.35
2023-05-22T00:05:49.666Z,17.33
2023-05-22T00:10:43.577Z,17.48
2023-05-22T00:15:36.897Z,17.45
2023-05-22T00:20:31.573Z,16.92
2023-05-22T00:25:24.984Z,17.10
2023-05-22T00:30:18.444Z,17.16
2023-05-22T00:35:12.080Z,17.33
2023-05-22T00:40:09.642Z,17.42
2023-05-22T00:45:02.961Z,17.33
2023-05-22T00:49:56.967Z,17.01
2023-05-22T00:54:54.811Z,16.97
2023-05-22T00:59:50.715Z,16.77
2023-05-22T01:04:48.514Z,16.91
2023-05-22T01:09:41.866Z,17.11
2023-05-22T01:14:48.387Z,16.77
2023-05-22T01:20:14.342Z,16.82
2023-05-22T01:25:37.315Z,16.71
2023-05-22T01:31:00.667Z,16.65
2023-05-22T01:35:58.523Z,16.76
2023-05-22T01:40:52.214Z,16.72
2023-05-22T01:45:46.103Z,16.91
2023-05-22T01:50:41.932Z,17.07
2023-05-22T01:55:46.352Z,17.10
2023-05-22T02:00:45.988Z,17.24
2023-05-22T02:05:42.025Z,17.21
2023-05-22T02:10:37.700Z,17.16
2023-05-22T02:15:32.152Z,17.28
2023-05-22T02:20:25.539Z,17.33
2023-05-22T02:25:20.330Z,17.31
2023-05-22T02:30:15.499Z,17.39
2023-05-22T02:35:10.247Z,17.23
2023-05-22T02:40:06.171Z,17.05
2023-05-22T02:45:01.006Z,17.05
2023-05-22T02:49:54.366Z,17.08
2023-05-22T02:54:47.683Z,16.90
2023-05-22T02:59:41.000Z,16.94
2023-05-22T03:04:38.648Z,16.92
2023-05-22T03:09:32.031Z,16.77
2023-05-22T03:14:25.431Z,16.75
2023-05-22T03:19:18.763Z,16.74
2023-05-22T03:24:13.725Z,16.53
2023-05-22T03:29:07.115Z,16.43
2023-05-22T03:34:00.897Z,16.47
2023-05-22T03:38:54.564Z,16.32
2023-05-22T03:43:49.312Z,16.36
2023-05-22T03:48:42.684Z,16.27
2023-05-22T03:53:36.014Z,16.41
2023-05-22T03:58:29.333Z,16.54
2023-05-22T04:03:24.149Z,16.31
2023-05-22T04:08:17.516Z,16.13
2023-05-22T04:13:10.900Z,16.08
2023-05-22T04:18:04.275Z,16.19
2023-05-22T04:22:59.136Z,16.29
2023-05-22T04:27:52.501Z,16.08
2023-05-22T04:32:45.892Z,16.15
2023-05-22T04:37:40.835Z,16.19
2023-05-22T04:42:37.375Z,16.23
2023-05-22T04:47:31.831Z,15.89
2023-05-22T04:52:25.576Z,15.93
2023-05-22T04:57:18.941Z,16.32
2023-05-22T05:02:13.760Z,16.66
2023-05-22T05:07:07.229Z,16.99
2023-05-22T05:12:00.603Z,17.21
2023-05-22T05:16:54.804Z,17.46
2023-05-22T05:21:50.471Z,17.69
2023-05-22T05:26:44.104Z,17.68
2023-05-22T05:31:37.494Z,17.89
2023-05-22T05:36:31.616Z,17.78
2023-05-22T05:41:27.233Z,17.61
2023-05-22T05:46:20.928Z,17.68
2023-05-22T05:51:14.452Z,18.15
2023-05-22T05:56:09.392Z,18.17
2023-05-22T06:01:04.926Z,18.12
2023-05-22T06:05:59.375Z,18.13
2023-05-22T06:10:52.946Z,18.23
2023-05-22T06:15:46.294Z,18.07
2023-05-22T06:20:41.320Z,17.91
2023-05-22T06:25:34.961Z,18.04
2023-05-22T06:30:39.612Z,17.94
2023-05-22T06:35:33.655Z,18.06
2023-05-22T06:40:28.442Z,18.25
2023-05-22T06:45:21.868Z,18.32
2023-05-22T06:50:15.249Z,18.45
2023-05-22T06:55:09.929Z,18.66
2023-05-22T07:00:07.685Z,18.62
2023-05-22T07:05:01.078Z,18.78
2023-05-22T07:09:54.526Z,18.97
2023-05-22T07:14:47.953Z,19.13
2023-05-22T07:19:42.655Z,19.39
2023-05-22T07:24:36.241Z,19.65
2023-05-22T07:29:29.615Z,19.89
2023-05-22T07:34:23.424Z,20.14
2023-05-22T07:39:18.137Z,20.29
2023-05-22T07:44:11.521Z,20.51
2023-05-22T07:49:04.854Z,20.63
2023-05-22T07:58:53.789Z,21.05
2023-05-22T08:03:47.297Z,21.10
2023-05-22T08:08:40.710Z,21.42
2023-05-22T08:13:34.092Z,21.66
2023-05-22T08:18:29.570Z,21.76
2023-05-22T08:23:23.330Z,22.02
2023-05-22T08:28:16.697Z,22.36
2023-05-22T08:33:10.036Z,22.31
2023-05-22T08:38:04.974Z,22.57
2023-05-22T08:42:58.541Z,22.91
2023-05-22T08:47:56.585Z,23.09
2023-05-22T08:52:58.396Z,23.18
2023-05-22T08:57:54.022Z,23.09
2023-05-22T09:02:49.102Z,23.08
2023-05-22T09:07:42.521Z,23.16
2023-05-22T09:12:37.934Z,23.45
2023-05-22T09:17:32.634Z,23.59
2023-05-22T09:22:39.019Z,23.60
2023-05-22T09:27:32.407Z,23.69
2023-05-22T09:32:26.133Z,23.91
2023-05-22T09:37:20.867Z,23.75
2023-05-22T09:42:17.786Z,23.90
2023-05-22T09:47:11.645Z,23.82
2023-05-22T09:52:09.784Z,24.10
2023-05-22T09:57:10.473Z,24.07
2023-05-22T10:02:04.214Z,24.26
2023-05-22T10:07:03.709Z,24.25
2023-05-22T10:12:05.178Z,24.24
2023-05-22T10:17:03.130Z,24.50
2023-05-22T10:22:01.509Z,24.49
2023-05-22T10:26:56.398Z,24.62
2023-05-22T10:32:00.165Z,24.70
2023-05-22T10:37:18.322Z,24.75
2023-05-22T10:42:15.527Z,24.68
2023-05-22T10:47:12.668Z,25.05
2023-05-22T10:52:10.165Z,25.07
2023-05-22T10:57:14.617Z,25.11
2023-05-22T11:02:20.777Z,25.43
2023-05-22T11:07:15.616Z,25.42
2023-05-22T11:12:25.833Z,25.48
2023-05-22T11:17:23.123Z,25.74
2023-05-22T11:22:19.363Z,26.17
2023-05-22T11:27:12.827Z,26.04
2023-05-22T11:32:09.172Z,26.17
2023-05-22T11:37:02.740Z,26.19
2023-05-22T11:41:57.480Z,26.47
2023-05-22T11:46:51.162Z,26.60
2023-05-22T11:51:45.108Z,26.44
2023-05-22T11:56:38.440Z,26.13
2023-05-22T12:01:33.990Z,26.32
2023-05-22T12:06:27.503Z,26.35
2023-05-22T12:11:21.676Z,26.32
2023-05-22T12:16:23.004Z,26.39
2023-05-22T12:21:20.542Z,26.40
2023-05-22T12:26:13.871Z,26.41
2023-05-22T12:31:07.231Z,26.16
2023-05-22T12:36:00.891Z,26.03
2023-05-22T12:40:57.271Z,25.95
2023-05-22T12:45:50.666Z,26.05
2023-05-22T12:50:44.252Z,26.02
2023-05-22T12:55:37.873Z,26.03
2023-05-22T13:00:32.702Z,26.01
2023-05-22T13:05:26.490Z,26.09
2023-05-22T13:10:20.434Z,26.10
2023-05-22T13:15:15.378Z,26.13
2023-05-22T13:20:12.152Z,26.13
2023-05-22T13:25:06.828Z,26.08
2023-05-22T13:30:00.203Z,26.15
2023-05-22T13:34:53.591Z,25.98
2023-05-22T13:39:48.588Z,25.96
2023-05-22T13:44:41.943Z,25.95
2023-05-22T13:49:35.329Z,26.12
2023-05-22T13:54:29.164Z,26.06
2023-05-22T13:59:23.926Z,26.21
2023-05-22T14:04:17.369Z,26.26
2023-05-22T14:09:10.775Z,26.11
2023-05-22T14:14:04.200Z,26.23
2023-05-22T14:19:00.983Z,26.26
2023-05-22T14:23:54.382Z,26.22
2023-05-22T14:28:47.670Z,26.20
2023-05-22T14:33:41.005Z,26.18
2023-05-22T14:38:36.295Z,26.11
2023-05-22T14:43:29.726Z,26.00
2023-05-22T14:48:26.294Z,26.05
2023-05-22T14:53:19.860Z,26.00
2023-05-22T14:58:14.741Z,25.99
2023-05-22T15:03:08.164Z,25.94
2023-05-22T15:08:01.654Z,25.89
2023-05-22T15:12:55.241Z,26.05
2023-05-22T15:17:49.973Z,25.89
2023-05-22T15:22:43.312Z,25.82
2023-05-22T15:27:37.355Z,25.74
2023-05-22T15:32:31.616Z,25.73
2023-05-22T15:37:26.417Z,25.72
2023-05-22T15:42:19.829Z,25.73
2023-05-22T15:47:13.202Z,25.99
2023-05-22T15:52:06.995Z,25.92
2023-05-22T15:57:01.868Z,25.87
2023-05-22T16:01:55.217Z,25.94
2023-05-22T16:06:48.635Z,25.92
2023-05-22T16:11:41.979Z,25.77
2023-05-22T16:16:36.997Z,25.75
2023-05-22T16:21:31.002Z,25.67
2023-05-22T16:26:24.421Z,25.57
2023-05-22T16:31:19.800Z,25.35
2023-05-22T16:36:14.645Z,25.37
2023-05-22T16:41:07.980Z,25.32
2023-05-22T16:46:01.304Z,25.15
2023-05-22T16:50:54.652Z,25.22
2023-05-22T16:55:49.443Z,25.12
2023-05-22T17:00:43.037Z,25.09
2023-05-22T17:05:36.632Z,24.87
2023-05-22T17:10:30.082Z,24.93
2023-05-22T17:15:24.864Z,24.67
2023-05-22T17:20:19.002Z,24.66
2023-05-22T17:25:12.428Z,24.66
2023-05-22T17:30:07.850Z,24.47
2023-05-22T17:35:03.324Z,24.43
2023-05-22T17:39:56.685Z,24.36
2023-05-22T17:44:50.000Z,24.15
2023-05-22T17:49:43.310Z,24.06
2023-05-22T17:54:37.989Z,23.92
2023-05-22T17:59:32.155Z,23.79
2023-05-22T18:04:25.495Z,23.67
2023-05-22T18:09:18.884Z,23.61
2023-05-22T18:14:13.629Z,23.53
2023-05-22T18:19:07.103Z,23.36
2023-05-22T18:24:00.496Z,23.27
2023-05-22T18:29:10.360Z,23.21
2023-05-22T18:34:08.990Z,23.16
2023-05-22T18:39:02.336Z,22.95
2023-05-22T18:43:55.672Z,22.86
2023-05-22T18:48:49.907Z,22.82
2023-05-22T18:53:44.576Z,22.71
2023-05-22T18:58:41.273Z,22.51
2023-05-22T19:03:34.667Z,22.41
2023-05-22T19:08:34.696Z,22.37
2023-05-22T19:13:29.838Z,22.03
2023-05-22T19:18:23.350Z,21.56
2023-05-22T19:23:16.757Z,21.65
2023-05-22T19:28:10.076Z,21.54
2023-05-22T19:33:06.536Z,21.58
2023-05-22T19:38:02.126Z,21.37
2023-05-22T19:42:55.501Z,21.31
2023-05-22T19:47:48.896Z,21.12
2023-05-22T19:52:43.636Z,21.10
2023-05-22T19:57:37.284Z,20.93
2023-05-22T20:02:30.647Z,21.10
2023-05-22T20:07:24.023Z,21.08
2023-05-22T20:12:18.724Z,21.21
2023-05-22T20:17:12.033Z,21.06
2023-05-22T20:22:06.152Z,20.93
2023-05-22T20:26:59.435Z,20.52
2023-05-22T20:31:55.845Z,20.17
2023-05-22T20:36:50.894Z,20.33
2023-05-22T20:41:44.232Z,20.50
2023-05-22T20:46:39.166Z,20.13
2023-05-22T20:51:33.901Z,20.33
2023-05-22T20:56:27.656Z,20.26
2023-05-22T21:01:21.150Z,19.88
2023-05-22T21:06:14.620Z,19.97
2023-05-22T21:11:09.303Z,19.84
2023-05-22T21:16:02.656Z,19.97
2023-05-22T21:20:56.125Z,19.85
2023-05-22T21:25:49.584Z,19.69
2023-05-22T21:31:23.633Z,19.65
2023-05-22T21:36:07.775Z,19.15
2023-05-22T21:41:01.211Z,19.45
2023-05-22T21:45:55.891Z,19.58
2023-05-22T21:50:50.303Z,19.67
2023-05-22T21:55:43.599Z,19.84
2023-05-22T22:00:37.257Z,19.81
2023-05-22T22:05:34.444Z,19.79
2023-05-22T22:10:27.824Z,19.84
2023-05-22T22:15:21.782Z,19.83
2023-05-22T22:20:15.081Z,19.20
2023-05-22T22:25:11.108Z,19.22
2023-05-22T22:30:04.886Z,19.26
2023-05-22T22:34:58.231Z,18.81
2023-05-22T22:39:51.628Z,18.83
2023-05-22T22:44:46.380Z,19.02
2023-05-22T22:49:39.693Z,19.11
2023-05-22T22:54:33.000Z,18.89
2023-05-22T22:59:26.475Z,18.51
2023-05-22T23:04:21.286Z,18.53
2023-05-22T23:09:14.787Z,18.75
2023-05-22T23:14:09.915Z,18.92
2023-05-22T23:19:03.812Z,18.48
2023-05-22T23:23:58.597Z,18.56
2023-05-22T23:28:51.940Z,18.45
2023-05-22T23:33:45.815Z,18.34
2023-05-22T23:38:39.168Z,18.39
2023-05-22T23:43:34.047Z,18.22
2023-05-22T23:48:27.359Z,18.02
2023-05-22T23:53:20.690Z,18.21
2023-05-22T23:58:15.915Z,18.17
